Time;durP1;ratioP1;P1;durP2;ratioP2;P2;SDS_P1;SDS_P2;PMS_P1;PMS_P2;Temp;Humidity;BMP_temperature;BMP_pressure;BME280_temperature;BME280_humidity;BME280_pressure;Samples;Min_cycle;Max_cycle;Signal;HPM_P1;HPM_P2
2024/04/07 00:01:12;;;;;;;2.63;1.67;;;10.60;99.90;;;11.11;74.84;97022.00;2360709;56;26192;-77
2024/04/07 00:03:40;;;;;;;3.50;2.00;;;10.90;99.90;;;11.41;73.96;97024.00;2360694;56;26157;-74
2024/04/07 00:06:06;;;;;;;3.57;2.17;;;11.20;99.90;;;11.76;72.98;97024.00;2361189;56;26505;-78
2024/04/07 00:08:33;;;;;;;3.03;1.53;;;11.50;99.90;;;12.09;71.24;97022.00;2360898;56;26105;-77
2024/04/07 00:11:03;;;;;;;2.93;1.80;;;11.50;99.90;;;12.06;70.53;97033.00;2360846;56;26224;-75
2024/04/07 00:13:30;;;;;;;3.10;1.90;;;11.60;99.90;;;12.22;70.76;97029.00;2360984;56;26729;-76
2024/04/07 00:15:57;;;;;;;2.53;1.60;;;12.10;99.90;;;12.76;69.07;97039.00;2360852;56;26204;-74
2024/04/07 00:18:24;;;;;;;2.87;2.03;;;12.40;99.90;;;12.86;68.70;97030.00;2360881;56;26176;-77
2024/04/07 00:21:03;;;;;;;5.07;2.63;;;12.00;99.90;;;12.41;67.75;97031.00;2360836;56;26149;-75
2024/04/07 00:23:31;;;;;;;2.60;1.93;;;11.70;99.90;;;12.16;68.65;97034.00;2360781;56;26156;-75
2024/04/07 00:25:59;;;;;;;3.47;2.00;;;11.70;99.90;;;12.11;69.84;97025.00;2360883;56;26145;-75
2024/04/07 00:28:26;;;;;;;4.60;2.37;;;11.80;99.90;;;12.32;69.53;97022.00;2360959;56;26248;-78
2024/04/07 00:30:52;;;;;;;2.70;2.07;;;11.60;99.90;;;12.20;68.79;97032.00;2361602;56;26152;-75
2024/04/07 00:33:19;;;;;;;3.77;2.07;;;11.30;99.90;;;11.87;69.74;97028.00;2361001;56;26179;-75
2024/04/07 00:36:00;;;;;;;3.53;2.23;;;11.10;99.90;;;11.67;70.95;97028.00;2361071;56;26149;-78
2024/04/07 00:38:30;;;;;;;3.03;1.93;;;10.70;99.90;;;11.28;71.98;97024.00;2361097;56;26150;-75
2024/04/07 00:41:01;;;;;;;5.30;2.27;;;10.60;99.90;;;11.19;73.31;97028.00;2361516;56;26267;-77
2024/04/07 00:43:28;;;;;;;4.20;1.90;;;10.60;99.90;;;11.26;73.45;97036.00;2361173;56;26126;-76
2024/04/07 00:45:58;;;;;;;10.90;2.40;;;10.50;99.90;;;11.11;73.44;97041.00;2360532;56;26233;-77
2024/04/07 00:48:25;;;;;;;4.70;2.10;;;10.50;99.90;;;11.04;73.46;97034.00;2360964;56;26654;-74
2024/04/07 00:50:56;;;;;;;3.23;2.00;;;10.70;99.90;;;11.32;73.54;97026.00;2361245;56;26216;-76
2024/04/07 00:53:22;;;;;;;3.20;2.10;;;11.00;99.90;;;11.48;73.39;97033.00;2361025;56;26106;-78
2024/04/07 00:55:49;;;;;;;3.63;2.10;;;11.00;99.90;;;11.39;71.66;97036.00;2360678;56;26169;-76
2024/04/07 00:58:18;;;;;;;3.33;2.00;;;10.70;99.90;;;11.21;72.34;97034.00;2360802;56;26219;-75
2024/04/07 01:00:46;;;;;;;3.77;2.37;;;10.70;99.90;;;11.11;73.44;97040.00;2361639;56;26783;-75
2024/04/07 01:03:15;;;;;;;4.87;1.90;;;10.50;99.90;;;11.18;72.03;97033.00;2361350;56;26701;-77
2024/04/07 01:05:47;;;;;;;3.53;1.70;;;10.20;99.90;;;10.81;71.42;97035.00;2361732;56;26141;-77
2024/04/07 01:08:16;;;;;;;3.60;2.10;;;9.90;99.90;;;10.54;71.78;97047.00;2361226;56;26231;-76
2024/04/07 01:10:48;;;;;;;6.50;2.33;;;9.80;99.90;;;10.36;73.14;97039.00;2360348;56;26546;-77
2024/04/07 01:13:15;;;;;;;3.87;1.93;;;9.80;99.90;;;10.32;74.53;97037.00;2361023;56;26107;-78
2024/04/07 01:15:42;;;;;;;4.20;2.10;;;9.90;99.90;;;10.42;75.10;97039.00;2360711;56;26156;-78
2024/04/07 01:18:09;;;;;;;5.43;2.17;;;10.10;99.90;;;10.71;74.96;97032.00;2360838;56;26220;-77
2024/04/07 01:20:36;;;;;;;3.30;2.07;;;10.20;99.90;;;10.69;75.25;97037.00;2360599;56;26273;-78
2024/04/07 01:23:03;;;;;;;4.23;2.10;;;10.20;99.90;;;10.78;73.53;97038.00;2360385;56;26626;-76
2024/04/07 01:25:30;;;;;;;13.83;2.53;;;10.10;99.90;;;10.63;73.09;97030.00;2360873;56;26208;-77
2024/04/07 01:27:59;;;;;;;6.80;1.80;;;10.10;99.90;;;10.68;73.67;97036.00;2360161;56;26129;-77
2024/04/07 01:30:31;;;;;;;4.97;2.37;;;10.00;99.90;;;10.32;73.99;97032.00;2361970;56;26236;-77
2024/04/07 01:32:57;;;;;;;3.83;2.33;;;9.90;99.90;;;10.42;74.48;97031.00;2360525;56;26153;-78
2024/04/07 01:35:24;;;;;;;3.43;1.83;;;9.70;99.90;;;10.05;74.94;97028.00;2360354;56;26113;-76
2024/04/07 01:37:51;;;;;;;2.23;1.57;;;9.70;99.90;;;10.12;75.20;97037.00;2360683;56;26212;-76
2024/04/07 01:40:17;;;;;;;4.23;2.33;;;9.80;99.90;;;10.26;75.41;97042.00;2360825;56;26125;-77
2024/04/07 01:42:44;;;;;;;3.27;1.90;;;9.70;99.90;;;10.18;73.86;97040.00;2360499;56;26184;-78
2024/04/07 01:45:11;;;;;;;3.50;1.90;;;9.50;99.90;;;10.07;73.80;97036.00;2360481;56;26629;-78
2024/04/07 01:47:38;;;;;;;3.97;2.13;;;9.40;99.90;;;9.87;75.14;97033.00;2360752;56;26141;-77
2024/04/07 01:50:09;;;;;;;12.60;1.87;;;9.40;99.90;;;9.89;77.02;97026.00;2361514;56;26208;-78
2024/04/07 01:52:36;;;;;;;3.00;1.80;;;9.50;99.90;;;10.03;75.82;97032.00;2362102;56;26157;-77
2024/04/07 01:55:03;;;;;;;3.60;2.30;;;9.60;99.90;;;10.01;76.43;97027.00;2361173;56;26196;-77
2024/04/07 01:57:30;;;;;;;4.23;1.90;;;9.60;99.90;;;10.14;76.45;97037.00;2361049;56;26197;-78
2024/04/07 01:59:57;;;;;;;2.90;1.77;;;9.50;99.90;;;10.08;76.07;97032.00;2360630;56;26235;-78
2024/04/07 02:02:23;;;;;;;4.97;2.10;;;9.70;99.90;;;10.18;76.91;97028.00;2361290;56;26124;-75
2024/04/07 02:04:50;;;;;;;2.37;1.53;;;9.70;99.90;;;10.20;75.73;97033.00;2360778;56;26129;-76
2024/04/07 02:07:19;;;;;;;4.03;2.00;;;9.60;99.90;;;10.18;74.79;97035.00;2361366;56;26141;-78
2024/04/07 02:09:48;;;;;;;2.90;2.03;;;9.30;99.90;;;9.89;74.83;97031.00;2360770;56;26153;-77
2024/04/07 02:12:15;;;;;;;2.40;1.40;;;9.30;99.90;;;9.87;74.96;97029.00;2361357;56;26164;-78
2024/04/07 02:14:44;;;;;;;2.93;1.97;;;9.20;99.90;;;9.62;76.23;97031.00;2360905;56;26756;-75
2024/04/07 02:17:13;;;;;;;4.03;1.80;;;9.10;99.90;;;9.65;76.51;97022.00;2361703;56;26207;-78
2024/04/07 02:19:41;;;;;;;5.50;2.00;;;9.20;99.90;;;9.47;76.62;97029.00;2360882;56;27260;-78
2024/04/07 02:22:08;;;;;;;6.10;2.13;;;9.40;99.90;;;9.96;77.71;97023.00;2361312;56;26613;-77
2024/04/07 02:24:35;;;;;;;4.33;2.10;;;9.80;99.90;;;10.25;76.14;97025.00;2362159;56;26503;-78
2024/04/07 02:27:01;;;;;;;3.57;2.30;;;9.60;99.90;;;10.05;74.73;97017.00;2360950;56;26157;-77
2024/04/07 02:29:28;;;;;;;5.93;2.23;;;9.40;99.90;;;9.91;75.13;97019.00;2360304;56;26141;-75
2024/04/07 02:31:55;;;;;;;3.73;1.90;;;9.30;99.90;;;9.59;75.80;97023.00;2359247;56;26201;-75
2024/04/07 02:34:21;;;;;;;3.73;1.90;;;9.20;99.90;;;9.53;76.44;97022.00;2360545;56;26124;-78
2024/04/07 02:36:48;;;;;;;3.93;1.70;;;9.20;99.90;;;9.47;76.38;97018.00;2360498;56;27128;-78
2024/04/07 02:39:17;;;;;;;3.20;2.00;;;9.10;99.90;;;9.46;76.69;97014.00;2360984;56;26711;-75
2024/04/07 02:41:46;;;;;;;3.23;1.63;;;9.10;99.90;;;9.59;76.33;97015.00;2361878;56;26113;-78
2024/04/07 02:44:12;;;;;;;3.40;1.97;;;9.10;99.90;;;9.63;76.54;97009.00;2361502;56;26556;-77
2024/04/07 02:49:24;;;;;;;4.20;2.10;;;9.30;99.90;;;9.72;76.98;97006.00;2360744;56;26640;-75
2024/04/07 02:51:51;;;;;;;4.50;2.20;;;9.20;99.90;;;9.69;74.43;97015.00;2360532;56;26109;-76
2024/04/07 02:54:17;;;;;;;4.63;2.27;;;8.90;99.90;;;9.42;73.62;97026.00;2360000;56;26359;-76
2024/04/07 02:56:44;;;;;;;10.00;2.13;;;8.70;99.90;;;9.22;75.08;97026.00;2360529;56;26144;-76
2024/04/07 02:59:10;;;;;;;4.23;1.80;;;8.60;99.90;;;9.12;76.22;97020.00;2360710;56;26639;-75
2024/04/07 03:01:37;;;;;;;3.23;1.80;;;8.70;99.90;;;9.18;77.21;97025.00;2360290;56;26415;-78
2024/04/07 03:04:04;;;;;;;2.53;1.60;;;8.70;99.90;;;9.10;76.18;97017.00;2359944;56;26169;-75
2024/04/07 03:06:32;;;;;;;5.63;1.80;;;8.30;99.90;;;8.93;75.34;97017.00;2360162;56;26212;-75
2024/04/07 03:08:58;;;;;;;2.57;1.80;;;8.30;99.90;;;8.79;77.88;97020.00;2360280;56;26231;-75
2024/04/07 03:11:25;;;;;;;4.10;1.70;;;8.40;99.90;;;8.86;78.06;97024.00;2360098;56;26689;-75
2024/04/07 03:13:52;;;;;;;4.27;1.80;;;8.50;99.90;;;8.97;77.81;97018.00;2360072;56;26705;-78
2024/04/07 03:16:18;;;;;;;3.30;1.73;;;8.50;99.90;;;8.95;78.72;97017.00;2360527;56;26133;-77
2024/04/07 03:18:45;;;;;;;2.87;1.87;;;8.40;99.90;;;8.94;78.14;97023.00;2359253;56;26223;-75
2024/04/07 03:21:11;;;;;;;3.43;1.97;;;8.30;99.90;;;8.83;78.12;97017.00;2360198;56;26105;-75
2024/04/07 03:23:38;;;;;;;6.53;2.10;;;8.20;99.90;;;8.62;77.92;97017.00;2360574;56;26165;-77
2024/04/07 03:26:04;;;;;;;3.83;1.80;;;8.20;99.90;;;8.62;77.71;97023.00;2360478;56;26157;-75
2024/04/07 03:28:34;;;;;;;3.53;1.63;;;8.30;99.90;;;8.72;77.92;97025.00;2360554;56;26728;-77
2024/04/07 03:31:03;;;;;;;2.90;1.77;;;8.40;99.90;;;8.67;78.34;97027.00;2360096;56;26279;-75
2024/04/07 03:33:31;;;;;;;3.30;1.87;;;8.40;99.90;;;8.90;77.95;97028.00;2360445;56;27172;-77
2024/04/07 03:36:02;;;;;;;2.57;1.47;;;8.50;99.90;;;8.91;78.20;97015.00;2360215;56;26141;-75
2024/04/07 03:38:29;;;;;;;4.03;1.77;;;8.60;99.90;;;9.04;77.71;97012.00;2360271;56;26152;-76
2024/04/07 03:40:55;;;;;;;3.90;1.97;;;8.70;99.90;;;9.13;77.76;97017.00;2360226;56;26125;-76
2024/04/07 03:43:22;;;;;;;2.87;1.73;;;8.70;99.90;;;9.22;77.08;97015.00;2360266;56;26125;-77
2024/04/07 03:45:58;;;;;;;3.47;2.10;;;8.70;99.90;;;9.19;76.87;97016.00;2359843;56;26690;-74
2024/04/07 03:48:25;;;;;;;2.73;1.80;;;8.60;99.90;;;9.08;75.75;97009.00;2360506;56;26196;-76
2024/04/07 03:50:51;;;;;;;3.80;1.87;;;8.40;99.90;;;8.97;76.66;97004.00;2360686;56;27116;-76
2024/04/07 03:53:18;;;;;;;2.87;1.60;;;8.40;99.90;;;8.86;76.31;97001.00;2360669;56;26157;-75
2024/04/07 03:55:44;;;;;;;2.93;1.50;;;8.30;99.90;;;8.78;76.60;97001.00;2360466;56;26224;-77
2024/04/07 03:58:12;;;;;;;2.73;1.70;;;8.40;99.90;;;8.75;77.03;97001.00;2360584;56;26177;-78
2024/04/07 04:00:38;;;;;;;5.47;1.70;;;8.40;99.90;;;8.81;77.19;96999.00;2360488;56;26685;-76
2024/04/07 04:03:05;;;;;;;2.23;1.43;;;8.40;99.90;;;8.78;76.77;96993.00;2360094;56;26121;-77
2024/04/07 04:05:31;;;;;;;2.37;1.40;;;8.40;99.90;;;8.70;77.69;97001.00;2360409;56;26753;-77
2024/04/07 04:07:58;;;;;;;3.00;1.80;;;8.40;99.90;;;8.79;77.10;97000.00;2360649;56;26161;-77
2024/04/07 04:10:24;;;;;;;4.57;1.90;;;8.30;99.90;;;8.64;77.52;97007.00;2360971;56;26200;-75
2024/04/07 04:12:51;;;;;;;3.50;1.73;;;8.30;99.90;;;8.53;78.44;97006.00;2360948;56;26141;-78
2024/04/07 04:15:17;;;;;;;3.83;1.90;;;8.20;99.90;;;8.73;77.52;97013.00;2361039;56;26165;-76
2024/04/07 04:17:44;;;;;;;4.87;2.40;;;8.20;99.90;;;8.73;77.33;97019.00;2360523;56;26587;-76
2024/04/07 04:20:11;;;;;;;4.17;2.03;;;8.30;99.90;;;8.73;76.96;97012.00;2360730;56;26104;-78
2024/04/07 04:22:37;;;;;;;4.03;2.27;;;8.20;99.90;;;8.69;77.05;97016.00;2360844;56;26116;-75
2024/04/07 04:25:04;;;;;;;2.63;1.50;;;8.20;99.90;;;8.63;78.47;97015.00;2360797;56;26704;-77
2024/04/07 04:27:31;;;;;;;10.57;2.57;;;8.40;99.90;;;8.83;78.87;97019.00;2360943;56;26179;-76
2024/04/07 04:29:58;;;;;;;2.47;1.70;;;8.40;99.90;;;8.76;78.34;97026.00;2360258;56;27211;-75
2024/04/07 04:32:25;;;;;;;2.93;1.50;;;8.40;99.90;;;8.74;76.78;97031.00;2360055;56;26725;-75
2024/04/07 04:34:51;;;;;;;2.50;1.67;;;8.30;99.90;;;8.62;77.17;97032.00;2360108;56;26756;-77
2024/04/07 04:37:20;;;;;;;3.17;1.60;;;8.40;99.90;;;8.76;77.73;97034.00;2361106;56;26130;-77
2024/04/07 04:39:47;;;;;;;3.73;1.50;;;8.30;99.90;;;8.75;76.82;97035.00;2360306;56;26633;-79
2024/04/07 04:42:14;;;;;;;2.53;1.37;;;8.30;99.90;;;8.82;77.61;97036.00;2360831;56;26207;-75
2024/04/07 04:44:40;;;;;;;2.83;1.90;;;8.20;99.90;;;8.73;77.21;97033.00;2360344;56;26168;-76
2024/04/07 04:47:08;;;;;;;3.43;1.67;;;8.30;99.90;;;8.78;77.07;97043.00;2360840;56;26199;-76
2024/04/07 04:49:35;;;;;;;5.03;2.30;;;8.20;99.90;;;8.67;77.61;97039.00;2359815;56;26187;-75
2024/04/07 04:52:01;;;;;;;2.83;1.70;;;8.30;99.90;;;8.86;78.50;97048.00;2360737;56;26165;-75
2024/04/07 04:54:28;;;;;;;2.40;1.63;;;8.40;99.90;;;8.93;79.54;97049.00;2361097;56;26171;-76
2024/04/07 04:56:54;;;;;;;6.87;1.77;;;8.50;99.90;;;9.08;79.64;97061.00;2360933;56;26752;-78
2024/04/07 04:59:21;;;;;;;4.23;1.83;;;8.70;99.90;;;9.11;78.78;97058.00;2360459;56;26148;-75
2024/04/07 05:01:48;;;;;;;7.83;1.80;;;8.80;99.90;;;9.20;78.56;97049.00;2360709;56;26807;-78
2024/04/07 05:04:15;;;;;;;9.03;1.80;;;9.00;99.90;;;9.46;78.05;97053.00;2361613;56;26152;-75
2024/04/07 05:06:41;;;;;;;2.57;1.60;;;9.00;99.90;;;9.42;76.98;97057.00;2360857;56;26247;-77
2024/04/07 05:09:09;;;;;;;2.93;1.83;;;8.90;99.90;;;9.30;77.42;97054.00;2361202;56;26116;-76
2024/04/07 05:11:36;;;;;;;3.23;1.40;;;9.00;99.90;;;9.43;77.03;97053.00;2360710;56;26109;-75
2024/04/07 05:14:02;;;;;;;2.60;1.57;;;9.10;99.90;;;9.52;77.26;97047.00;2360957;56;26773;-76
2024/04/07 05:16:29;;;;;;;2.40;1.77;;;9.10;99.90;;;9.60;77.21;97044.00;2361148;56;26195;-78
2024/04/07 05:18:56;;;;;;;3.80;1.83;;;9.30;99.90;;;9.79;76.56;97032.00;2360734;56;26228;-78
2024/04/07 05:21:22;;;;;;;3.43;1.63;;;9.40;99.90;;;9.99;76.11;97028.00;2361149;56;26093;-79
2024/04/07 05:23:50;;;;;;;3.10;1.83;;;9.50;99.90;;;10.09;76.58;97034.00;2360842;56;26136;-75
2024/04/07 05:26:19;;;;;;;3.87;2.27;;;9.80;99.90;;;10.38;75.95;97037.00;2361641;56;26117;-78
2024/04/07 05:28:46;;;;;;;5.07;2.30;;;9.90;99.90;;;10.29;77.37;97031.00;2361236;56;26168;-77
2024/04/07 05:31:13;;;;;;;3.50;1.70;;;10.00;99.90;;;10.49;76.86;97041.00;2361205;56;26311;-76
2024/04/07 05:33:48;;;;;;;8.23;1.90;;;10.10;99.90;;;10.60;77.02;97038.00;2361295;56;26184;-76
2024/04/07 05:36:15;;;;;;;6.27;1.90;;;10.20;99.90;;;10.67;77.17;97042.00;2361355;56;26279;-78
2024/04/07 05:38:46;;;;;;;3.57;1.90;;;10.20;99.90;;;10.75;76.74;97044.00;2360970;56;26124;-80
2024/04/07 05:41:13;;;;;;;3.13;1.80;;;10.40;99.90;;;10.96;76.69;97043.00;2361706;56;26788;-77
2024/04/07 05:43:39;;;;;;;3.07;2.00;;;10.50;99.90;;;11.20;75.61;97040.00;2361257;56;26724;-76
2024/04/07 05:46:09;;;;;;;7.20;2.37;;;10.70;99.90;;;11.28;75.47;97048.00;2361906;56;26129;-78
2024/04/07 05:48:36;;;;;;;3.07;1.70;;;10.90;99.90;;;11.53;74.53;97047.00;2362284;56;26477;-77
2024/04/07 05:51:10;;;;;;;2.87;1.80;;;11.10;99.90;;;11.79;74.52;97042.00;2361251;56;26112;-77
2024/04/07 05:53:37;;;;;;;3.00;1.70;;;11.40;99.90;;;12.18;74.29;97050.00;2362142;56;27297;-78
2024/04/07 05:56:03;;;;;;;3.53;2.07;;;11.60;99.90;;;12.40;73.45;97051.00;2361637;56;26196;-75
2024/04/07 05:58:31;;;;;;;2.33;1.57;;;11.90;99.90;;;12.68;73.06;97055.00;2361459;56;26097;-76
2024/04/07 06:01:00;;;;;;;3.87;2.20;;;12.20;99.90;;;13.03;72.00;97052.00;2361739;56;26188;-76
2024/04/07 06:03:26;;;;;;;4.37;2.30;;;12.50;99.90;;;13.48;70.94;97052.00;2361631;56;26200;-77
2024/04/07 06:05:53;;;;;;;6.90;2.20;;;13.00;99.90;;;13.97;70.00;97060.00;2361240;56;26180;-77
2024/04/07 06:08:19;;;;;;;3.00;2.10;;;13.50;99.90;;;14.49;67.46;97052.00;2362120;56;26180;-76
2024/04/07 06:10:46;;;;;;;4.35;2.40;;;13.90;99.90;;;14.85;66.69;97057.00;2361111;56;26145;-77
2024/04/07 06:13:12;;;;;;;5.53;1.80;;;14.30;99.90;;;15.34;64.31;97053.00;2362141;56;26197;-78
2024/04/07 06:15:42;;;;;;;5.23;2.30;;;14.60;99.90;;;15.70;62.82;97054.00;2361785;56;26144;-75
2024/04/07 06:18:09;;;;;;;8.13;2.30;;;14.80;99.90;;;15.86;62.67;97058.00;2362080;56;26101;-80
2024/04/07 06:20:36;;;;;;;4.72;2.70;;;15.10;99.90;;;16.16;61.79;97056.00;2361175;56;26168;-77
2024/04/07 06:23:03;;;;;;;2.93;2.07;;;15.50;99.90;;;16.48;61.46;97059.00;2361484;56;26138;-77
2024/04/07 06:25:29;;;;;;;4.10;2.17;;;15.50;99.90;;;16.49;59.47;97053.00;2361207;56;26577;-78
2024/04/07 06:27:56;;;;;;;5.10;2.58;;;15.70;99.90;;;16.81;58.48;97063.00;2360323;56;26271;-77
2024/04/07 06:30:22;;;;;;;7.20;2.50;;;15.80;99.90;;;16.97;57.74;97065.00;2358758;56;26113;-79
2024/04/07 06:32:49;;;;;;;4.72;2.60;;;15.80;99.90;;;16.97;56.37;97067.00;2358474;56;26698;-79
2024/04/07 06:35:16;;;;;;;4.00;2.30;;;15.90;99.90;;;17.02;57.26;97064.00;2358721;56;26133;-76
2024/04/07 06:37:42;;;;;;;3.47;2.05;;;15.90;99.90;;;16.89;57.13;97062.00;2358201;56;26132;-76
2024/04/07 06:40:09;;;;;;;2.35;2.10;;;15.80;99.90;;;16.94;57.93;97060.00;2358811;56;26149;-78
2024/04/07 06:42:35;;;;;;;3.92;2.58;;;15.90;99.90;;;16.95;58.27;97053.00;2358353;56;26236;-76
2024/04/07 06:45:02;;;;;;;3.92;2.17;;;15.90;99.90;;;17.11;59.22;97052.00;2358790;56;26764;-77
2024/04/07 06:47:29;;;;;;;5.07;2.80;;;16.10;99.90;;;17.21;59.11;97062.00;2358372;56;26227;-76
2024/04/07 06:49:57;;;;;;;4.60;2.58;;;16.30;99.90;;;17.49;58.60;97064.00;2358414;56;26144;-78
2024/04/07 06:52:25;;;;;;;5.00;2.03;;;16.50;99.90;;;17.73;59.41;97064.00;2361389;56;26232;-76
2024/04/07 06:54:54;;;;;;;3.53;2.10;;;16.70;99.90;;;17.98;58.31;97055.00;2361112;56;26595;-76
2024/04/07 06:57:21;;;;;;;4.43;2.20;;;16.80;99.90;;;18.18;56.19;97060.00;2361541;56;27235;-80
2024/04/07 06:59:52;;;;;;;3.33;2.12;;;17.00;99.90;;;18.39;55.44;97063.00;2361256;56;26694;-77
2024/04/07 07:02:19;;;;;;;4.40;1.98;;;17.20;99.90;;;18.61;55.52;97052.00;2361561;56;26141;-77
2024/04/07 07:04:47;;;;;;;3.83;1.98;;;17.40;99.80;;;18.89;53.78;97054.00;2361276;56;26113;-76
2024/04/07 07:07:14;;;;;;;3.70;2.08;;;17.60;99.90;;;19.18;54.53;97053.00;2361971;56;26124;-79
2024/04/07 07:09:41;;;;;;;4.53;2.30;;;18.00;99.90;;;19.47;54.31;97053.00;2361005;56;26117;-77
2024/04/07 07:12:07;;;;;;;8.45;2.58;;;18.10;98.80;;;19.40;52.29;97054.00;2361526;56;26610;-76
2024/04/07 07:14:34;;;;;;;4.78;2.50;;;18.30;99.40;;;19.67;53.07;97054.00;2361478;56;26674;-77
2024/04/07 07:17:01;;;;;;;3.47;2.33;;;18.40;98.40;;;19.84;51.49;97061.00;2361485;56;26571;-78
2024/04/07 07:19:27;;;;;;;8.15;2.40;;;18.60;97.80;;;20.14;50.35;97060.00;2360172;56;26674;-79
2024/04/07 07:21:54;;;;;;;3.12;2.00;;;18.70;97.70;;;20.24;50.28;97051.00;2360700;56;26228;-79
2024/04/07 07:24:20;;;;;;;4.12;2.10;;;18.70;97.10;;;20.26;49.53;97057.00;2361220;56;26124;-77
2024/04/07 07:26:47;;;;;;;3.60;2.20;;;18.90;97.10;;;20.29;49.79;97051.00;2361222;56;26697;-80
2024/04/07 07:29:13;;;;;;;5.03;2.40;;;19.10;96.20;;;20.33;48.49;97052.00;2361247;56;26153;-79
2024/04/07 07:31:40;;;;;;;4.53;2.15;;;19.10;95.60;;;20.55;47.49;97049.00;2361454;56;26713;-77
2024/04/07 07:34:08;;;;;;;3.40;1.87;;;19.30;95.70;;;20.83;47.44;97055.00;2361751;56;26113;-78
2024/04/07 07:36:34;;;;;;;4.03;1.95;;;19.60;95.40;;;21.19;46.98;97050.00;2361052;56;26141;-77
2024/04/07 07:39:01;;;;;;;3.05;2.10;;;19.80;96.10;;;21.39;47.94;97052.00;2361478;56;26073;-78
2024/04/07 07:41:27;;;;;;;2.85;2.10;;;20.00;96.20;;;21.63;48.02;97058.00;2361485;56;26111;-78
2024/04/07 07:43:54;;;;;;;3.90;1.90;;;20.20;96.30;;;21.83;48.24;97059.00;2361705;56;26737;-76
2024/04/07 07:46:20;;;;;;;4.60;1.83;;;20.40;96.20;;;22.02;48.08;97056.00;2361767;56;26104;-79
2024/04/07 07:48:47;;;;;;;2.75;1.92;;;20.50;96.60;;;22.10;48.68;97052.00;2361371;56;26256;-79
2024/04/07 07:51:13;;;;;;;5.10;2.22;;;20.60;96.10;;;22.06;48.37;97055.00;2361588;56;26515;-78
2024/04/07 07:53:40;;;;;;;3.28;1.92;;;20.50;96.10;;;22.02;48.42;97054.00;2360986;56;26208;-79
2024/04/07 07:56:08;;;;;;;3.08;2.05;;;20.50;96.10;;;22.08;48.40;97057.00;2361874;56;26102;-78
2024/04/07 07:58:38;;;;;;;1.85;1.67;;;20.60;95.80;;;22.13;47.70;97063.00;2361387;56;26694;-79
2024/04/07 08:01:05;;;;;;;2.92;2.05;;;20.60;95.80;;;22.18;47.81;97050.00;2361859;56;26085;-78
2024/04/07 08:03:32;;;;;;;2.37;1.90;;;20.70;95.40;;;22.22;47.41;97060.00;2361160;56;26736;-79
2024/04/07 08:05:59;;;;;;;2.33;1.80;;;20.80;95.80;;;22.27;48.20;97053.00;2361273;56;26641;-78
2024/04/07 08:08:26;;;;;;;3.08;1.75;;;20.90;95.60;;;22.30;47.92;97055.00;2361482;56;26165;-78
2024/04/07 08:10:53;;;;;;;3.75;2.15;;;21.00;95.00;;;22.42;46.98;97052.00;2361237;56;26650;-80
2024/04/07 08:13:20;;;;;;;3.60;2.30;;;21.20;95.30;;;22.71;47.27;97054.00;2361726;56;26262;-78
2024/04/07 08:15:46;;;;;;;4.30;2.03;;;21.40;95.10;;;22.88;46.86;97046.00;2361218;56;26680;-78
2024/04/07 08:18:14;;;;;;;4.05;2.37;;;21.50;94.60;;;22.99;46.10;97044.00;2361854;56;26124;-79
2024/04/07 08:20:43;;;;;;;4.28;2.83;;;21.70;94.70;;;23.21;46.17;97044.00;2361469;56;26633;-78
2024/04/07 08:23:11;;;;;;;4.18;2.10;;;21.80;93.70;;;23.26;44.91;97041.00;2360879;56;26640;-79
2024/04/07 08:25:38;;;;;;;4.45;2.40;;;22.00;93.70;;;23.42;44.96;97046.00;2361410;56;26125;-77
2024/04/07 08:28:05;;;;;;;4.95;2.12;;;22.20;93.90;;;23.75;45.05;97048.00;2361814;56;26598;-79
2024/04/07 08:30:32;;;;;;;3.58;2.42;;;22.20;93.70;;;23.80;44.89;97038.00;2361143;56;26591;-78
2024/04/07 08:33:00;;;;;;;7.90;2.40;;;22.30;94.20;;;23.75;45.84;97033.00;2361363;56;26081;-78
2024/04/07 08:35:27;;;;;;;7.20;2.80;;;22.40;93.50;;;23.85;44.71;97034.00;2361387;56;26116;-80
2024/04/07 08:37:54;;;;;;;7.03;2.90;;;22.60;93.50;;;24.01;44.65;97032.00;2361334;56;26462;-77
2024/04/07 08:40:21;;;;;;;5.75;2.83;;;22.70;94.00;;;24.23;45.32;97031.00;2361494;56;26113;-77
2024/04/07 08:42:50;;;;;;;3.90;2.97;;;23.00;94.10;;;24.50;45.44;97032.00;2360980;56;26196;-80
2024/04/07 08:45:21;;;;;;;4.40;2.95;;;23.10;94.10;;;24.66;45.34;97033.00;2361634;56;26189;-77
2024/04/07 08:47:49;;;;;;;6.28;2.75;;;23.30;93.70;;;24.81;44.72;97026.00;2361160;56;26164;-80
2024/04/07 08:50:18;;;;;;;5.37;2.50;;;23.50;93.00;;;25.04;43.53;97030.00;2361794;56;27114;-80
2024/04/07 08:52:45;;;;;;;4.37;2.17;;;23.60;91.90;;;25.20;41.89;97017.00;2361065;56;26180;-79
2024/04/07 08:55:11;;;;;;;5.72;2.60;;;23.70;92.00;;;25.27;42.12;97022.00;2361443;56;26195;-79
2024/04/07 08:57:40;;;;;;;3.20;2.37;;;23.80;91.90;;;25.34;42.15;97013.00;2361377;56;26634;-79
2024/04/07 09:00:08;;;;;;;2.20;1.90;;;23.80;91.30;;;25.44;41.08;97023.00;2361358;56;26132;-79
2024/04/07 09:02:36;;;;;;;3.12;2.00;;;23.90;91.30;;;25.31;41.46;97020.00;2361569;56;26117;-78
2024/04/07 09:05:04;;;;;;;4.20;2.33;;;24.00;90.50;;;25.51;40.28;97027.00;2361369;56;26108;-77
2024/04/07 09:07:31;;;;;;;2.78;2.10;;;24.10;90.30;;;25.56;40.15;97013.00;2361112;56;26176;-80
2024/04/07 09:09:58;;;;;;;4.78;2.22;;;24.20;90.60;;;25.86;40.34;97026.00;2361377;56;26125;-76
2024/04/07 09:12:24;;;;;;;3.17;1.85;;;24.40;90.20;;;25.88;40.03;97019.00;2361193;56;26586;-79
2024/04/07 09:14:51;;;;;;;6.30;2.30;;;24.50;90.00;;;26.08;39.58;97017.00;2361285;56;26088;-76
2024/04/07 09:17:17;;;;;;;4.03;2.55;;;24.70;90.50;;;26.27;40.27;97014.00;2361419;56;26148;-77
2024/04/07 09:19:44;;;;;;;4.90;2.53;;;24.80;90.40;;;26.37;40.30;97013.00;2360795;56;26187;-79
2024/04/07 09:22:10;;;;;;;2.65;2.35;;;25.00;90.10;;;26.53;39.78;97011.00;2361600;56;26093;-77
2024/04/07 09:24:39;;;;;;;4.32;2.20;;;25.00;89.50;;;26.57;39.43;97008.00;2361012;56;26579;-78
2024/04/07 09:27:09;;;;;;;3.00;2.28;;;25.00;89.40;;;26.50;38.98;97004.00;2361459;56;26232;-78
2024/04/07 09:29:41;;;;;;;4.50;2.10;;;25.20;85.70;;;26.82;36.86;97007.00;2361283;56;26607;-80
2024/04/07 09:32:08;;;;;;;3.80;2.00;;;25.30;86.80;;;26.90;37.69;97009.00;2361602;56;26113;-77
2024/04/07 09:34:35;;;;;;;3.17;2.20;;;25.30;87.00;;;26.88;37.95;97011.00;2360985;56;26665;-77
2024/04/07 09:37:04;;;;;;;2.70;2.20;;;25.40;82.30;;;27.05;34.92;97000.00;2361569;56;26550;-78
2024/04/07 09:39:31;;;;;;;3.92;2.15;;;25.40;82.50;;;27.06;35.21;97007.00;2361505;56;26133;-77
2024/04/07 09:42:02;;;;;;;2.30;1.77;;;25.60;82.10;;;27.15;35.13;96999.00;2361563;56;26634;-79
2024/04/07 09:44:36;;;;;;;4.32;2.05;;;25.70;80.80;;;27.31;34.32;96992.00;2361421;56;26057;-79
2024/04/07 09:47:06;;;;;;;4.78;2.00;;;25.70;80.80;;;27.27;34.54;96996.00;2361311;56;26149;-80
2024/04/07 09:49:38;;;;;;;5.62;1.90;;;25.70;79.40;;;27.26;33.79;96997.00;2361495;56;26085;-79
2024/04/07 09:52:10;;;;;;;4.18;2.17;;;25.60;80.60;;;27.13;34.65;96998.00;2361451;56;26105;-78
2024/04/07 09:54:45;;;;;;;4.72;2.15;;;25.70;80.10;;;27.21;34.42;96997.00;2361439;56;26160;-79
2024/04/07 09:57:16;;;;;;;3.80;2.22;;;25.80;80.10;;;27.38;34.27;97000.00;2361762;56;26185;-80
2024/04/07 09:59:48;;;;;;;3.72;2.05;;;25.80;80.00;;;27.25;34.53;96999.00;2361054;56;26610;-78
2024/04/07 10:02:14;;;;;;;2.92;2.10;;;25.80;78.80;;;27.37;33.80;97006.00;2361610;56;26126;-79
2024/04/07 10:04:42;;;;;;;2.30;1.92;;;25.80;79.10;;;27.38;34.01;96996.00;2361260;56;26133;-78
2024/04/07 10:07:13;;;;;;;2.67;1.95;;;25.90;77.40;;;27.53;32.92;97001.00;2361816;56;26518;-78
2024/04/07 10:09:41;;;;;;;4.68;1.92;;;26.00;78.60;;;27.49;33.95;97002.00;2360770;56;26650;-77
2024/04/07 10:12:09;;;;;;;7.82;2.20;;;26.10;78.70;;;27.79;33.70;96998.00;2361303;56;26140;-80
2024/04/07 10:14:40;;;;;;;7.25;2.05;;;26.30;79.40;;;28.02;33.97;96993.00;2360767;56;26101;-79
2024/04/07 10:17:10;;;;;;;2.83;2.25;;;26.30;79.00;;;27.97;33.82;96999.00;2361724;56;26200;-77
2024/04/07 10:19:47;;;;;;;2.05;1.80;;;26.30;78.10;;;27.92;33.41;96988.00;2361636;56;26113;-78
2024/04/07 10:22:17;;;;;;;2.50;2.10;;;26.30;77.50;;;27.85;33.13;96992.00;2361250;56;26522;-78
2024/04/07 10:24:50;;;;;;;3.12;2.00;;;26.20;79.50;;;27.59;34.73;96992.00;2361036;56;26165;-80
2024/04/07 10:27:25;;;;;;;2.70;1.90;;;26.20;78.20;;;27.84;33.53;96996.00;2361520;56;26185;-79